Time;durP1;ratioP1;P1;durP2;ratioP2;P2;SDS_P1;SDS_P2;PMS_P1;PMS_P2;Temp;Humidity;BMP_temperature;BMP_pressure;BME280_temperature;BME280_humidity;BME280_pressure;Samples;Min_cycle;Max_cycle;Signal;HPM_P1;HPM_P2
2023/06/24 00:00:06;;;;;;;12.52;10.10;;;;;;;15.58;82.01;102227.28;5067012;28;20044;-76
2023/06/24 00:02:32;;;;;;;13.30;10.57;;;;;;;15.58;82.08;102223.72;5067346;28;20025;-76
2023/06/24 00:05:00;;;;;;;10.52;9.50;;;;;;;15.59;82.28;102218.09;5065076;28;20029;-76
2023/06/24 00:07:26;;;;;;;11.93;10.00;;;;;;;15.56;82.28;102221.19;5058421;28;20500;-76
2023/06/24 00:09:51;;;;;;;11.23;9.32;;;;;;;15.57;82.08;102220.16;5066950;28;20827;-76
2023/06/24 00:12:18;;;;;;;12.60;10.57;;;;;;;15.51;82.38;102218.25;5068501;28;20025;-76
2023/06/24 00:14:50;;;;;;;10.82;9.70;;;;;;;15.48;82.66;102220.50;5061507;28;20025;-76
2023/06/24 00:17:16;;;;;;;11.63;10.15;;;;;;;15.44;82.79;102225.50;5067949;28;20035;-76
2023/06/24 00:19:43;;;;;;;11.15;9.70;;;;;;;15.39;83.01;102226.09;5069425;28;20047;-76
2023/06/24 00:22:09;;;;;;;12.18;9.45;;;;;;;15.36;82.67;102233.75;5061107;28;20029;-76
2023/06/24 00:24:34;;;;;;;11.90;9.85;;;;;;;15.35;82.44;102238.34;5068457;28;20051;-77
2023/06/24 00:27:00;;;;;;;12.85;10.18;;;;;;;15.35;82.61;102229.41;5066987;28;20037;-76
2023/06/24 00:29:25;;;;;;;11.82;10.55;;;;;;;15.35;82.63;102229.41;5070476;28;20089;-76
2023/06/24 00:31:51;;;;;;;12.38;10.30;;;;;;;15.31;83.08;102232.50;5061888;28;20509;-76
2023/06/24 00:34:19;;;;;;;12.75;10.90;;;;;;;15.28;83.61;102226.59;5069656;28;20052;-76
2023/06/24 00:36:46;;;;;;;11.52;9.85;;;;;;;15.25;84.28;102221.59;5067101;28;20497;-77
2023/06/24 00:39:12;;;;;;;11.77;10.52;;;;;;;15.28;84.62;102226.59;5068015;28;20029;-76
2023/06/24 00:41:37;;;;;;;10.95;9.80;;;;;;;15.25;84.81;102233.25;5064302;28;20464;-77
2023/06/24 00:44:03;;;;;;;12.50;11.02;;;;;;;15.22;85.01;102222.78;5066287;28;20468;-77
2023/06/24 00:46:28;;;;;;;10.68;9.57;;;;;;;15.20;85.17;102222.16;5071444;28;20532;-77
2023/06/24 00:48:55;;;;;;;11.35;9.90;;;;;;;15.17;85.66;102219.84;5072444;28;20024;-77
2023/06/24 00:51:21;;;;;;;12.48;10.00;;;;;;;15.15;85.95;102222.72;5070496;28;20052;-77
2023/06/24 00:53:47;;;;;;;10.05;9.05;;;;;;;15.12;86.08;102216.88;5071764;28;20036;-76
2023/06/24 00:56:14;;;;;;;11.23;10.13;;;;;;;15.12;85.87;102216.88;5072447;28;20082;-77
2023/06/24 00:58:41;;;;;;;11.85;9.90;;;;;;;15.07;86.09;102219.31;5058108;28;20490;-77
2023/06/24 01:01:08;;;;;;;12.32;10.13;;;;;;;15.05;86.02;102211.38;5053831;28;20059;-76
2023/06/24 01:03:33;;;;;;;12.52;10.73;;;;;;;15.03;85.60;102215.28;5070695;28;20033;-76
2023/06/24 01:05:59;;;;;;;12.15;10.25;;;;;;;15.02;85.54;102214.47;5031194;28;20037;-76
2023/06/24 01:08:24;;;;;;;13.30;10.68;;;;;;;14.99;85.65;102212.13;5080747;28;20029;-75
2023/06/24 01:10:50;;;;;;;11.82;9.88;;;;;;;14.95;85.69;102213.56;5054321;28;20119;-76
2023/06/24 01:13:16;;;;;;;13.65;10.88;;;;;;;14.94;85.81;102212.72;5071271;28;20028;-76
2023/06/24 01:15:41;;;;;;;12.18;10.82;;;;;;;14.95;85.71;102206.28;5071933;28;20992;-76
2023/06/24 01:18:27;;;;;;;11.32;9.45;;;;;;;15.00;85.50;102219.25;5062843;28;20035;-77
2023/06/24 01:20:59;;;;;;;12.90;10.27;;;;;;;15.04;85.55;102219.69;5068117;28;20063;-76
2023/06/24 01:23:57;;;;;;;13.07;10.18;;;;;;;15.07;85.72;102217.44;5037536;28;20020;-76
2023/06/24 01:26:35;;;;;;;12.27;9.75;;;;;;;15.07;85.71;102217.44;5045876;28;20069;-76
2023/06/24 01:29:15;;;;;;;13.18;10.02;;;;;;;15.06;85.81;102217.63;5045038;28;20431;-76
2023/06/24 01:31:50;;;;;;;11.85;10.25;;;;;;;15.04;85.48;102223.25;5059357;28;20024;-76
2023/06/24 01:34:26;;;;;;;11.80;10.60;;;;;;;15.01;85.55;102216.31;5041455;28;20039;-78
2023/06/24 01:37:00;;;;;;;10.80;9.68;;;;;;;15.00;85.84;102217.34;5049811;28;20028;-77
2023/06/24 01:39:26;;;;;;;11.30;10.18;;;;;;;14.97;86.14;102209.63;5075257;28;20392;-77
2023/06/24 01:41:56;;;;;;;11.15;9.93;;;;;;;14.95;86.21;102211.69;5063407;28;20025;-77
2023/06/24 01:44:21;;;;;;;12.45;9.98;;;;;;;14.93;86.20;102208.34;5052920;28;20495;-77
2023/06/24 01:46:49;;;;;;;11.57;10.05;;;;;;;14.92;86.94;102209.38;5069046;28;20025;-77
2023/06/24 01:49:33;;;;;;;12.38;11.07;;;;;;;14.92;87.26;102217.50;5036258;28;20024;-77
2023/06/24 01:52:00;;;;;;;12.98;10.65;;;;;;;14.88;87.19;102210.78;5038756;28;20032;-77
2023/06/24 01:54:26;;;;;;;11.80;10.40;;;;;;;14.83;87.14;102210.50;5049411;28;20017;-77
2023/06/24 01:56:51;;;;;;;11.55;9.57;;;;;;;14.81;87.41;102210.72;5033533;28;20070;-77
2023/06/24 01:59:18;;;;;;;12.27;10.65;;;;;;;14.77;87.89;102205.88;5059286;28;20495;-77
2023/06/24 02:01:43;;;;;;;13.57;10.82;;;;;;;14.72;88.33;102205.59;5029336;28;20060;-78
2023/06/24 02:04:09;;;;;;;13.38;11.40;;;;;;;14.66;88.56;102202.56;5050676;28;20490;-78
2023/06/24 02:06:35;;;;;;;11.45;10.25;;;;;;;14.63;88.69;102202.97;5067819;28;20036;-78
2023/06/24 02:09:01;;;;;;;12.35;10.57;;;;;;;14.59;88.80;102201.69;5054882;28;20024;-77
2023/06/24 02:11:26;;;;;;;12.13;10.10;;;;;;;14.56;88.75;102202.88;5053664;28;20329;-77
2023/06/24 02:13:52;;;;;;;13.02;10.77;;;;;;;14.55;88.85;102200.38;5036507;28;20041;-77
2023/06/24 02:16:17;;;;;;;12.00;10.18;;;;;;;14.53;88.42;102199.72;5068650;28;20128;-78
2023/06/24 02:18:43;;;;;;;13.25;11.35;;;;;;;14.48;88.20;102194.03;5060562;28;20037;-78
2023/06/24 02:21:08;;;;;;;14.95;11.35;;;;;;;14.47;88.21;102192.38;5052714;28;20456;-78
2023/06/24 02:23:37;;;;;;;11.73;10.52;;;;;;;14.48;88.02;102194.03;5045242;28;20048;-78
2023/06/24 02:26:03;;;;;;;12.00;10.13;;;;;;;14.43;88.15;102186.47;5056106;28;20013;-77
2023/06/24 02:28:29;;;;;;;15.07;11.32;;;;;;;14.41;88.17;102193.94;5044055;28;20597;-78
2023/06/24 02:30:54;;;;;;;13.35;10.20;;;;;;;14.37;88.28;102204.31;5051181;28;20047;-78
2023/06/24 02:33:20;;;;;;;11.25;10.05;;;;;;;14.36;89.34;102190.97;5053549;28;20460;-78
2023/06/24 02:35:46;;;;;;;13.25;11.00;;;;;;;14.33;89.04;102186.75;5068830;28;20432;-78
2023/06/24 02:38:11;;;;;;;15.15;11.05;;;;;;;14.28;88.72;102196.50;5062553;28;20432;-78
2023/06/24 02:40:36;;;;;;;12.90;10.65;;;;;;;14.22;88.88;102187.25;5064866;28;20039;-78
2023/06/24 02:43:02;;;;;;;12.55;10.70;;;;;;;14.19;89.15;102193.91;5069290;28;20039;-78
2023/06/24 02:45:27;;;;;;;15.85;12.05;;;;;;;14.18;89.12;102194.06;5068336;28;20017;-77
2023/06/24 02:47:53;;;;;;;13.40;11.90;;;;;;;14.14;89.86;102200.88;5062581;28;20140;-76
2023/06/24 02:50:18;;;;;;;11.73;10.52;;;;;;;14.09;89.88;102202.31;5050113;28;20020;-77
2023/06/24 02:52:44;;;;;;;14.38;11.57;;;;;;;14.05;90.37;102198.28;5026516;28;20032;-77
2023/06/24 02:55:10;;;;;;;12.70;10.82;;;;;;;14.03;90.38;102203.03;5052843;28;20025;-77
2023/06/24 02:57:39;;;;;;;12.32;10.20;;;;;;;14.00;90.29;102199.88;5052020;28;20033;-77
2023/06/24 03:00:14;;;;;;;15.38;11.32;;;;;;;14.01;90.29;102202.38;5064455;28;20399;-77
2023/06/24 03:02:41;;;;;;;14.75;12.07;;;;;;;13.98;90.58;102205.47;5050450;28;20036;-77
2023/06/24 03:05:07;;;;;;;14.23;11.40;;;;;;;13.99;90.69;102206.31;5021898;28;20036;-77
2023/06/24 03:07:34;;;;;;;14.82;12.50;;;;;;;13.97;90.49;102208.38;5065992;28;20612;-77
2023/06/24 03:10:02;;;;;;;13.43;11.40;;;;;;;13.95;90.12;102209.41;5066499;28;20109;-77
2023/06/24 03:12:28;;;;;;;11.93;10.60;;;;;;;13.97;90.59;102202.97;5063750;28;20017;-77
2023/06/24 03:14:54;;;;;;;13.82;11.27;;;;;;;13.98;91.03;102208.16;5071492;28;20055;-77
2023/06/24 03:17:19;;;;;;;12.68;11.18;;;;;;;14.00;90.74;102208.81;5070301;28;20036;-77
2023/06/24 03:19:44;;;;;;;15.10;11.88;;;;;;;14.02;90.46;102206.78;5058677;28;20039;-77
2023/06/24 03:22:10;;;;;;;15.00;12.00;;;;;;;14.05;90.46;102200.13;5067773;28;20035;-77
2023/06/24 03:24:35;;;;;;;14.50;11.52;;;;;;;14.05;90.53;102197.44;5069169;28;20017;-77
2023/06/24 03:27:01;;;;;;;14.35;11.25;;;;;;;14.06;90.30;102199.97;5062826;28;20036;-77
2023/06/24 03:29:26;;;;;;;16.17;12.77;;;;;;;14.09;90.21;102202.31;5071578;28;20027;-77
2023/06/24 03:31:52;;;;;;;14.32;11.70;;;;;;;14.11;90.31;102204.81;5069177;28;20122;-75
2023/06/24 03:34:17;;;;;;;13.82;10.73;;;;;;;14.15;90.23;102211.53;5067074;28;20020;-76
2023/06/24 03:36:43;;;;;;;14.77;11.98;;;;;;;14.17;89.93;102208.63;5068119;28;20032;-75
2023/06/24 03:39:08;;;;;;;12.43;11.05;;;;;;;14.20;89.76;102208.25;5067551;28;20036;-76
2023/06/24 03:41:34;;;;;;;14.50;11.30;;;;;;;14.25;89.71;102205.84;5065400;28;20021;-76
2023/06/24 03:43:59;;;;;;;13.43;11.45;;;;;;;14.30;89.37;102203.38;5066610;28;20476;-77
2023/06/24 03:46:25;;;;;;;13.50;11.05;;;;;;;14.34;89.40;102204.69;5070337;28;20078;-77
2023/06/24 03:48:50;;;;;;;13.65;12.13;;;;;;;14.39;88.89;102207.69;5069436;28;20052;-77
2023/06/24 03:51:16;;;;;;;13.25;11.18;;;;;;;14.39;89.31;102212.25;5066128;28;20024;-77
2023/06/24 03:53:41;;;;;;;14.60;11.52;;;;;;;14.43;88.74;102212.75;5068456;28;20035;-77
2023/06/24 03:56:07;;;;;;;13.30;11.90;;;;;;;14.47;88.64;102214.03;5069311;28;20029;-77
2023/06/24 03:58:32;;;;;;;14.07;11.02;;;;;;;14.52;88.28;102211.59;5068919;28;20033;-77
2023/06/24 04:00:59;;;;;;;13.65;11.63;;;;;;;14.57;88.00;102220.00;5068363;28;20111;-77
2023/06/24 04:03:28;;;;;;;16.02;12.05;;;;;;;14.63;87.52;102223.81;5067079;28;20032;-77
2023/06/24 04:05:57;;;;;;;15.20;11.85;;;;;;;14.64;87.26;102223.63;5064895;28;20060;-77
2023/06/24 04:08:25;;;;;;;14.93;11.57;;;;;;;14.69;87.89;102228.50;5072449;28;20037;-76
2023/06/24 04:10:50;;;;;;;13.88;11.27;;;;;;;14.73;87.86;102231.66;5068814;28;20507;-77
2023/06/24 04:13:16;;;;;;;14.93;12.00;;;;;;;14.72;87.74;102233.56;5062273;28;20061;-76
2023/06/24 04:15:41;;;;;;;15.35;11.95;;;;;;;14.70;87.86;102241.84;5069679;28;20159;-76
2023/06/24 04:18:07;;;;;;;13.63;11.13;;;;;;;14.77;87.57;102238.41;5070231;28;20021;-77
2023/06/24 04:20:34;;;;;;;14.48;11.45;;;;;;;14.74;87.40;102236.88;5064149;28;20052;-78
2023/06/24 04:23:00;;;;;;;15.02;12.10;;;;;;;14.79;87.55;102244.47;5073672;28;20082;-77
2023/06/24 04:25:25;;;;;;;13.50;11.70;;;;;;;14.91;87.12;102248.34;5074208;28;20047;-77
2023/06/24 04:27:51;;;;;;;14.80;12.18;;;;;;;15.05;86.36;102245.78;5073562;28;20021;-77
2023/06/24 04:30:16;;;;;;;14.93;12.65;;;;;;;15.19;85.71;102244.88;5072381;28;20028;-77
2023/06/24 04:32:41;;;;;;;13.20;11.30;;;;;;;15.38;84.77;102247.97;5071864;28;20028;-77
2023/06/24 04:35:07;;;;;;;16.27;11.93;;;;;;;15.56;84.48;102250.22;5067209;28;20021;-77
2023/06/24 04:37:32;;;;;;;13.52;11.68;;;;;;;15.77;83.62;102241.19;5071919;28;20507;-77
2023/06/24 04:39:58;;;;;;;15.75;11.80;;;;;;;15.85;83.08;102251.97;5072309;28;20054;-77
2023/06/24 04:42:24;;;;;;;12.57;11.15;;;;;;;15.95;82.24;102246.19;5072251;28;20051;-77
2023/06/24 04:44:50;;;;;;;13.32;11.52;;;;;;;16.07;81.94;102249.16;5072035;28;20039;-77
2023/06/24 04:47:19;;;;;;;12.80;11.43;;;;;;;16.16;81.84;102245.25;5066532;28;20036;-76
2023/06/24 04:49:44;;;;;;;14.32;12.38;;;;;;;16.23;81.47;102244.47;5068810;28;20380;-76
2023/06/24 04:52:13;;;;;;;15.93;12.30;;;;;;;16.34;80.98;102241.16;5073087;28;20031;-76
2023/06/24 04:54:38;;;;;;;14.27;11.70;;;;;;;16.44;80.79;102236.19;5066560;28;20036;-77
2023/06/24 04:57:07;;;;;;;15.75;12.35;;;;;;;16.75;79.83;102231.28;5071604;28;20020;-76
2023/06/24 04:59:33;;;;;;;13.93;11.85;;;;;;;16.96;79.03;102228.44;5071289;28;20098;-76
2023/06/24 05:01:58;;;;;;;15.57;11.02;;;;;;;17.32;78.31;102223.66;5072958;28;20021;-76
2023/06/24 05:04:23;;;;;;;14.05;12.00;;;;;;;17.87;75.72;102228.03;5071589;28;20058;-77
2023/06/24 05:06:49;;;;;;;12.52;11.18;;;;;;;18.75;72.03;102228.59;5072308;28;20389;-74
2023/06/24 05:09:14;;;;;;;13.25;11.48;;;;;;;19.46;68.99;102223.94;5069010;28;20023;-76
2023/06/24 05:11:40;;;;;;;15.82;12.73;;;;;;;19.77;66.76;102224.91;5071713;28;20032;-76
2023/06/24 05:14:06;;;;;;;15.57;13.07;;;;;;;20.21;65.44;102232.28;5071246;28;20036;-82
2023/06/24 05:16:31;;;;;;;15.65;12.48;;;;;;;20.80;63.24;102227.13;5064531;28;20131;-76
2023/06/24 05:18:56;;;;;;;16.05;11.70;;;;;;;21.67;60.78;102224.94;5068882;28;20025;-75
2023/06/24 05:21:22;;;;;;;15.18;12.55;;;;;;;21.96;59.31;102234.09;5070285;28;20039;-77
2023/06/24 05:23:47;;;;;;;12.32;10.38;;;;;;;22.69;57.24;102236.41;5069481;28;20033;-77
2023/06/24 05:26:12;;;;;;;13.10;11.10;;;;;;;22.09;58.43;102232.16;5072299;28;20020;-77
2023/06/24 05:28:38;;;;;;;15.82;11.88;;;;;;;21.95;58.26;102235.16;5062719;28;20029;-78
2023/06/24 05:31:03;;;;;;;14.27;11.95;;;;;;;21.49;59.40;102243.13;5061970;28;20029;-76
2023/06/24 05:33:29;;;;;;;13.27;11.90;;;;;;;20.98;61.76;102239.06;5070146;28;20484;-77
2023/06/24 05:35:54;;;;;;;14.05;11.45;;;;;;;20.94;61.84;102246.94;5071227;28;20025;-77
2023/06/24 05:38:19;;;;;;;15.10;12.70;;;;;;;20.87;62.59;102244.28;5073541;28;20027;-76
2023/06/24 05:40:45;;;;;;;15.75;12.70;;;;;;;20.87;62.76;102247.03;5067002;28;20029;-79
2023/06/24 05:43:10;;;;;;;14.50;12.77;;;;;;;21.09;62.11;102242.94;5061248;28;20028;-77
2023/06/24 05:45:36;;;;;;;13.95;12.55;;;;;;;21.30;61.46;102247.88;5071452;28;20039;-77
2023/06/24 05:48:02;;;;;;;15.05;12.45;;;;;;;21.54;60.74;102245.13;5072311;28;20020;-78
2023/06/24 05:50:28;;;;;;;14.27;12.48;;;;;;;21.76;59.46;102244.59;5069874;28;20028;-78
2023/06/24 05:52:53;;;;;;;13.90;12.40;;;;;;;22.27;58.75;102245.72;5072430;28;20077;-79
2023/06/24 05:55:19;;;;;;;14.30;12.43;;;;;;;22.43;57.69;102245.25;5070053;28;20478;-79
2023/06/24 05:57:44;;;;;;;16.08;12.73;;;;;;;22.90;56.77;102238.72;5070325;28;20036;-80
2023/06/24 06:00:12;;;;;;;14.35;12.10;;;;;;;23.76;54.96;102246.78;5070124;28;20123;-80
2023/06/24 06:02:38;;;;;;;13.80;11.10;;;;;;;24.44;53.58;102242.19;5070451;28;20093;-82
2023/06/24 06:05:04;;;;;;;13.45;12.02;;;;;;;25.38;50.44;102255.81;5068402;28;20066;-79
2023/06/24 06:07:30;;;;;;;13.73;11.68;;;;;;;25.58;49.21;102253.25;5068083;28;20069;-79
2023/06/24 06:09:56;;;;;;;13.15;11.95;;;;;;;25.66;49.12;102249.16;5066102;28;20025;-77
2023/06/24 06:12:21;;;;;;;14.05;11.77;;;;;;;26.09;48.49;102251.03;5069933;28;20052;-78
2023/06/24 06:14:47;;;;;;;10.50;9.40;;;;;;;26.79;47.80;102242.47;5058054;28;20534;-78
2023/06/24 06:17:13;;;;;;;12.40;11.20;;;;;;;26.93;46.78;102249.16;5064058;28;20036;-78
2023/06/24 06:19:41;;;;;;;12.55;10.70;;;;;;;26.57;47.63;102254.56;5061072;28;20091;-77
2023/06/24 06:22:06;;;;;;;11.10;10.00;;;;;;;26.67;47.20;102252.94;5069480;28;20046;-77
2023/06/24 06:24:32;;;;;;;12.82;10.55;;;;;;;26.46;47.67;102252.88;5070676;28;20032;-78
2023/06/24 06:26:57;;;;;;;14.20;10.93;;;;;;;26.29;48.56;102253.13;5067547;28;20109;-79
2023/06/24 06:29:23;;;;;;;14.07;11.20;;;;;;;25.96;49.25;102257.88;5065652;28;20518;-78
2023/06/24 06:31:48;;;;;;;11.05;9.95;;;;;;;26.83;46.49;102259.38;5066993;28;20029;-77
2023/06/24 06:34:13;;;;;;;11.77;10.65;;;;;;;26.96;46.02;102261.59;5066135;28;20025;-80
2023/06/24 06:36:39;;;;;;;12.35;10.02;;;;;;;27.71;44.76;102260.22;5068359;28;20039;-79
2023/06/24 06:39:05;;;;;;;10.40;9.30;;;;;;;29.25;40.34;102268.09;5069149;28;20073;-79
2023/06/24 06:41:30;;;;;;;12.48;10.70;;;;;;;29.04;40.51;102259.94;5067325;28;20049;-76
2023/06/24 06:43:55;;;;;;;11.82;9.75;;;;;;;28.49;42.92;102255.25;5060895;28;20025;-76
2023/06/24 06:46:21;;;;;;;10.93;9.82;;;;;;;29.44;40.89;102262.66;5069018;28;20051;-78
2023/06/24 06:48:46;;;;;;;11.15;9.88;;;;;;;30.23;39.61;102264.34;5059809;28;20028;-77
2023/06/24 06:51:12;;;;;;;10.68;9.40;;;;;;;30.15;38.94;102260.25;5067350;28;20039;-78
2023/06/24 06:53:37;;;;;;;9.60;8.65;;;;;;;30.77;37.05;102261.41;5064007;28;20457;-79
2023/06/24 06:56:03;;;;;;;10.98;9.95;;;;;;;31.52;35.27;102258.78;5067580;28;20036;-80
2023/06/24 06:58:31;;;;;;;10.77;9.77;;;;;;;31.56;35.23;102252.31;5061088;28;20028;-79
2023/06/24 07:01:01;;;;;;;12.00;10.73;;;;;;;30.69;37.24;102252.63;5061859;28;20106;-79
2023/06/24 07:03:27;;;;;;;13.35;9.73;;;;;;;31.48;36.15;102250.22;5057143;28;20024;-79
2023/06/24 07:05:53;;;;;;;11.20;10.10;;;;;;;31.61;36.01;102256.97;5064844;28;20047;-80
2023/06/24 07:08:18;;;;;;;12.23;11.02;;;;;;;31.66;35.54;102256.88;5069458;28;20024;-80
2023/06/24 07:10:44;;;;;;;12.40;11.23;;;;;;;30.23;37.88;102262.41;5069612;28;20112;-79
2023/06/24 07:13:13;;;;;;;14.07;12.35;;;;;;;31.04;36.14;102259.88;5062086;28;20036;-80
2023/06/24 07:15:38;;;;;;;13.02;11.73;;;;;;;31.22;36.43;102261.84;5070525;28;20301;-79
2023/06/24 07:18:03;;;;;;;11.65;10.45;;;;;;;32.73;33.01;102257.72;5068269;28;20598;-79
2023/06/24 07:20:29;;;;;;;13.07;11.52;;;;;;;33.01;32.73;102268.78;5060817;28;20032;-79
2023/06/24 07:22:54;;;;;;;12.50;11.27;;;;;;;32.72;32.25;102272.00;5069384;28;20081;-79
2023/06/24 07:25:22;;;;;;;11.73;10.63;;;;;;;32.07;33.96;102263.63;5063581;28;20801;-80
2023/06/24 07:27:48;;;;;;;12.05;10.85;;;;;;;32.91;32.33;102263.47;5067349;28;20123;-80
2023/06/24 07:30:13;;;;;;;13.70;11.60;;;;;;;31.10;34.49;102269.78;5068897;28;20047;-79
2023/06/24 07:32:39;;;;;;;12.38;10.77;;;;;;;29.87;36.59;102273.06;5065254;28;20287;-79
2023/06/24 07:35:05;;;;;;;11.82;10.63;;;;;;;30.87;35.73;102272.38;5060545;28;20025;-79
2023/06/24 07:37:30;;;;;;;11.80;10.55;;;;;;;32.27;33.09;102278.28;5065914;28;20056;-79
2023/06/24 07:39:55;;;;;;;11.80;10.70;;;;;;;31.70;34.33;102273.78;5056419;28;20032;-79
2023/06/24 07:42:21;;;;;;;12.32;11.13;;;;;;;32.53;33.00;102286.06;5057400;28;20424;-80
2023/06/24 07:44:47;;;;;;;12.02;10.73;;;;;;;31.81;33.53;102280.00;5062018;28;20035;-81
2023/06/24 07:47:12;;;;;;;13.07;11.80;;;;;;;31.41;34.35;102284.03;5052154;28;20031;-79
2023/06/24 07:49:38;;;;;;;16.13;10.25;;;;;;;32.47;32.36;102277.84;5068489;28;20432;-79
2023/06/24 07:52:04;;;;;;;13.82;11.30;;;;;;;30.79;35.97;102275.81;5069056;28;20139;-79
2023/06/24 07:54:33;;;;;;;12.68;11.48;;;;;;;32.57;32.35;102287.09;5067458;28;20024;-79
2023/06/24 07:56:58;;;;;;;12.40;10.48;;;;;;;30.67;35.60;102279.06;5071934;28;20035;-79
2023/06/24 07:59:24;;;;;;;12.10;10.90;;;;;;;30.26;35.62;102274.84;5072526;28;20395;-79
2023/06/24 08:01:50;;;;;;;12.15;10.85;;;;;;;31.35;34.31;102287.22;5067343;28;20024;-79
2023/06/24 08:04:15;;;;;;;11.65;10.07;;;;;;;32.08;32.72;102287.56;5069118;28;20077;-80
2023/06/24 08:06:41;;;;;;;10.85;9.77;;;;;;;32.73;31.50;102284.78;5065285;28;20055;-80
2023/06/24 08:09:06;;;;;;;11.52;10.43;;;;;;;30.75;34.84;102281.16;5064318;28;20538;-79
2023/06/24 08:11:32;;;;;;;10.45;9.45;;;;;;;31.72;33.79;102274.34;5070938;28;20040;-79
2023/06/24 08:13:57;;;;;;;11.88;8.95;;;;;;;32.44;32.30;102277.63;5062098;28;20467;-79
2023/06/24 08:16:23;;;;;;;10.68;9.57;;;;;;;32.85;31.28;102270.31;5062055;28;20476;-80
2023/06/24 08:18:48;;;;;;;10.88;9.00;;;;;;;32.28;31.82;102266.00;5068477;28;20112;-80
2023/06/24 08:21:14;;;;;;;11.45;9.10;;;;;;;32.20;30.94;102270.31;5067312;28;20009;-80
2023/06/24 08:23:40;;;;;;;9.98;8.43;;;;;;;32.26;31.15;102265.44;5071924;28;20089;-80
2023/06/24 08:26:06;;;;;;;8.88;7.97;;;;;;;33.46;28.84;102272.72;5071290;28;20032;-80
2023/06/24 08:28:31;;;;;;;8.85;7.75;;;;;;;34.17;28.20;102269.88;5052814;28;20028;-81
2023/06/24 08:30:56;;;;;;;8.80;7.90;;;;;;;34.44;27.75;102267.16;5070901;28;20035;-81
2023/06/24 08:33:22;;;;;;;8.68;7.82;;;;;;;34.57;27.75;102263.41;5065137;28;20020;-81
2023/06/24 08:35:47;;;;;;;8.10;6.95;;;;;;;33.83;29.02;102262.22;5068424;28;20483;-80
2023/06/24 08:38:13;;;;;;;6.95;6.25;;;;;;;34.00;29.20;102262.31;5072757;28;20024;-79
2023/06/24 08:40:39;;;;;;;9.07;7.85;;;;;;;34.39;27.29;102267.31;5072940;28;20473;-80
2023/06/24 08:43:06;;;;;;;7.55;6.72;;;;;;;34.29;28.59;102266.47;5070770;28;20024;-80
2023/06/24 08:45:31;;;;;;;10.38;8.05;;;;;;;32.20;30.22;102257.19;5064009;28;20123;-79
2023/06/24 08:47:57;;;;;;;6.68;6.07;;;;;;;33.08;29.09;102263.59;5080836;28;20048;-79
2023/06/24 08:50:22;;;;;;;7.03;6.32;;;;;;;34.20;26.79;102257.25;5076524;28;20029;-80
2023/06/24 08:52:52;;;;;;;8.68;6.72;;;;;;;34.49;26.72;102261.44;5056073;28;20021;-79
2023/06/24 08:55:20;;;;;;;7.30;6.60;;;;;;;35.37;26.18;102252.97;5066586;28;20035;-81
2023/06/24 08:57:45;;;;;;;7.00;6.18;;;;;;;34.17;27.22;102258.72;5050507;28;20028;-81
2023/06/24 09:00:11;;;;;;;7.35;5.95;;;;;;;33.08;28.14;102251.63;5063554;28;20106;-81
2023/06/24 09:02:38;;;;;;;5.75;5.22;;;;;;;34.37;26.15;102255.63;5067495;28;20371;-81
2023/06/24 09:05:09;;;;;;;6.05;5.38;;;;;;;34.48;26.05;102251.38;5069764;28;20029;-81
2023/06/24 09:07:35;;;;;;;5.95;5.32;;;;;;;33.72;27.08;102253.28;5069305;28;20083;-79
2023/06/24 09:10:00;;;;;;;5.97;5.38;;;;;;;33.38;27.10;102250.00;5066648;28;20098;-80
2023/06/24 09:12:26;;;;;;;5.35;4.57;;;;;;;33.69;26.51;102260.38;5051445;28;20024;-81
2023/06/24 09:14:51;;;;;;;5.72;4.28;;;;;;;33.77;25.94;102255.13;5067743;28;20017;-81
2023/06/24 09:17:17;;;;;;;5.13;4.50;;;;;;;33.10;26.16;102250.16;5066045;28;20107;-82
2023/06/24 09:19:43;;;;;;;7.43;4.57;;;;;;;31.27;29.29;102245.03;5064199;28;20044;-81
2023/06/24 09:22:17;;;;;;;6.32;4.65;;;;;;;31.60;28.67;102242.19;5067372;28;20484;-81
2023/06/24 09:24:46;;;;;;;4.43;3.92;;;;;;;32.11;28.28;102241.53;5075064;28;20044;-81
2023/06/24 09:27:12;;;;;;;4.13;3.72;;;;;;;32.13;28.40;102245.63;5068747;28;20252;-80
2023/06/24 09:29:37;;;;;;;4.03;3.63;;;;;;;34.22;26.29;102245.72;5068955;28;20028;-77
2023/06/24 09:32:06;;;;;;;6.20;4.38;;;;;;;33.90;26.59;102240.22;5067264;28;20032;-77
2023/06/24 09:34:31;;;;;;;4.82;4.00;;;;;;;33.56;27.29;102250.09;5067671;28;20020;-79
2023/06/24 09:36:57;;;;;;;4.50;4.03;;;;;;;34.66;25.35;102243.84;5065420;28;20158;-78
2023/06/24 09:39:29;;;;;;;5.63;4.82;;;;;;;35.33;24.31;102236.00;5070630;28;20377;-78
2023/06/24 09:41:55;;;;;;;6.68;4.68;;;;;;;34.11;26.15;102239.63;5069721;28;20384;-78
2023/06/24 09:44:21;;;;;;;5.30;4.80;;;;;;;33.34;26.81;102231.41;5063526;28;20016;-78
2023/06/24 09:46:49;;;;;;;4.68;4.18;;;;;;;34.66;26.10;102227.06;5062495;28;20033;-78
2023/06/24 09:49:15;;;;;;;6.55;5.10;;;;;;;35.71;24.46;102223.19;5065678;28;20025;-78
2023/06/24 09:51:45;;;;;;;6.45;5.03;;;;;;;33.64;26.22;102224.19;5061313;28;20047;-78
2023/06/24 09:54:13;;;;;;;6.30;5.00;;;;;;;32.27;28.52;102219.78;5071080;28;20063;-78
2023/06/24 09:56:50;;;;;;;6.25;4.88;;;;;;;32.17;28.50;102223.56;5070231;28;20032;-77
2023/06/24 09:59:19;;;;;;;6.43;4.85;;;;;;;33.01;27.29;102224.16;5045170;22;20055;-78
2023/06/24 10:01:45;;;;;;;6.78;4.50;;;;;;;33.82;26.04;102224.25;4985931;28;20489;-77
2023/06/24 10:04:16;;;;;;;8.18;4.75;;;;;;;33.24;26.67;102218.53;4991478;28;20147;-78
2023/06/24 10:06:44;;;;;;;4.32;3.90;;;;;;;33.55;27.03;102214.94;5023655;28;20038;-78
2023/06/24 10:09:13;;;;;;;6.47;4.97;;;;;;;34.59;25.80;102216.38;4986374;28;20030;-79
2023/06/24 10:11:39;;;;;;;4.90;4.40;;;;;;;36.47;22.70;102220.59;4988497;28;20552;-79
2023/06/24 10:14:04;;;;;;;4.70;4.20;;;;;;;35.37;23.64;102224.97;4993158;28;20160;-78
2023/06/24 10:16:30;;;;;;;7.40;5.25;;;;;;;33.51;25.34;102213.97;5017201;28;20091;-78
2023/06/24 10:19:02;;;;;;;5.97;4.97;;;;;;;33.97;25.75;102221.03;4958444;28;20026;-77
2023/06/24 10:22:10;;;;;;;5.90;5.30;;;;;;;35.30;23.81;102216.28;4997909;28;20467;-78
2023/06/24 10:24:41;;;;;;;7.00;5.35;;;;;;;34.51;24.81;102217.19;4945871;28;20043;-80
2023/06/24 10:27:16;;;;;;;6.32;4.90;;;;;;;35.65;23.87;102202.16;4926825;29;20050;-79
2023/06/24 10:29:46;;;;;;;6.43;5.22;;;;;;;36.24;23.04;102209.72;4959544;28;20050;-79
2023/06/24 10:32:11;;;;;;;13.43;8.48;;;;;;;36.38;22.78;102195.38;4978199;28;20077;-80
2023/06/24 10:34:37;;;;;;;6.80;5.97;;;;;;;36.62;22.02;102202.31;4984649;28;20516;-80
2023/06/24 10:37:03;;;;;;;7.50;6.70;;;;;;;36.09;23.35;102190.69;4988417;28;20088;-79
2023/06/24 10:39:52;;;;;;;7.78;6.93;;;;;;;33.73;26.94;102193.50;4987277;28;20046;-79
2023/06/24 10:42:34;;;;;;;7.45;6.28;;;;;;;35.20;24.70;102193.06;4980507;28;20030;-78
2023/06/24 10:45:08;;;;;;;7.22;5.70;;;;;;;35.18;24.73;102184.19;4982396;28;20278;-80
2023/06/24 10:47:33;;;;;;;;;;;;;;;35.41;24.18;102192.34;4979463;28;20271;-79
2023/06/24 10:50:01;;;;;;;10.53;5.37;;;;;;;36.21;23.16;102192.72;4984716;28;20360;-79
2023/06/24 10:52:26;;;;;;;8.55;6.40;;;;;;;34.63;25.50;102184.94;4980373;28;20034;-79
2023/06/24 10:54:52;;;;;;;8.95;6.32;;;;;;;34.49;25.26;102190.72;4986713;28;20049;-80
2023/06/24 10:57:23;;;;;;;8.30;6.43;;;;;;;34.58;24.97;102186.75;4986950;28;20073;-82
2023/06/24 10:59:49;;;;;;;6.50;5.85;;;;;;;35.65;23.91;102188.94;4994682;28;20428;-81
2023/06/24 11:02:15;;;;;;;5.40;4.90;;;;;;;35.72;23.88;102184.81;5021555;28;20409;-80
2023/06/24 11:04:50;;;;;;;7.10;5.40;;;;;;;36.74;22.35;102189.47;4988214;28;20105;-81
2023/06/24 11:07:19;;;;;;;6.28;5.68;;;;;;;35.34;23.76;102186.44;5010738;28;20048;-81
2023/06/24 11:09:55;;;;;;;6.68;5.47;;;;;;;34.20;25.47;102179.00;4989199;28;20107;-81
2023/06/24 11:12:25;;;;;;;7.35;6.03;;;;;;;35.31;23.55;102182.31;5012907;28;20015;-79